Acworth, Georgia
Current Conditions -  °F | °C
As of 1:47 PM on Saturday 25 Oct 2014 (Local Time) from KRYY Reporting Station
Clear Clear  
Wind Chill: 21°   Ceiling: Unl
Heat Index: 21°   Visibility: 10mi
Dew Point:   Wind: 8mph
Humidity: 43%   Direction: 300°WNW
Pressure: 30.08"   Gusts: 17mph
Location:  34.06°N, 84.68°W
Report Text: KRYY 251747Z 30007G15KT 280V340 10SM SKC 21/08 A3008
Loading
Personal Weather Stations






























Interactive Weather Map New forecast layout! Learn more

10-Day Weather Forecast

Advertisements
Track Severe Weather on mobile